Prairieville, Illinois
Current Conditions -  °F | °C
As of 2:15 AM on Monday 24 Nov 2014 (Local Time) from KSQI Reporting Station
Overcast Overcast  
Wind Chill: 40°   Ceiling: 200
Heat Index: 46°   Visibility: 2mi
Dew Point: 45°   Wind: 15mph
Humidity: 93%   Direction: 280°W
Pressure: 29.11"   Gusts: NA
Location:  41.8109°N, 89.4546°W
Report Text: KSQI 240815Z 28013KT 2SM OVC002 08/07 A2911 RMK AO1
Loading
Personal Weather Stations






























Interactive Weather Map New forecast layout! Learn more

10-Day Weather Forecast

Advertisements
Track Severe Weather on mobile